createdAt,value
2022-11-18T00:01:58.461Z,82.76
2022-11-18T00:04:33.532Z,83.68
2022-11-18T00:07:04.994Z,82.11
2022-11-18T00:09:39.576Z,83.19
2022-11-18T00:12:24.436Z,82.69
2022-11-18T00:14:56.147Z,82.85
2022-11-18T00:35:17.036Z,82.12
2022-11-18T00:37:49.461Z,81.02
2022-11-18T00:40:21.700Z,80.97
2022-11-18T00:42:54.259Z,81.76
2022-11-18T00:45:27.198Z,82.06
2022-11-18T00:47:59.420Z,81.02
2022-11-18T00:50:34.080Z,79.47
2022-11-18T00:53:06.699Z,80.25
2022-11-18T00:55:38.780Z,80.02
2022-11-18T00:58:14.340Z,79.68
2022-11-18T01:00:48.828Z,78.00
2022-11-18T01:03:22.480Z,76.97
2022-11-18T01:05:57.661Z,77.95
2022-11-18T01:08:30.242Z,79.74
2022-11-18T01:11:23.107Z,79.51
2022-11-18T01:13:53.315Z,79.27
2022-11-18T01:16:27.200Z,78.94
2022-11-18T01:18:59.081Z,79.15
2022-11-18T01:21:34.481Z,78.26
2022-11-18T01:24:06.741Z,77.10
2022-11-18T01:26:38.720Z,78.79
2022-11-18T01:29:13.630Z,79.07
2022-11-18T01:35:03.922Z,78.00
2022-11-18T01:37:38.068Z,77.87
2022-11-18T01:40:12.442Z,77.78
2022-11-18T01:42:44.122Z,78.46
2022-11-18T01:46:01.971Z,78.79
2022-11-18T01:48:39.563Z,76.86
2022-11-18T01:51:16.644Z,77.08
2022-11-18T01:53:55.161Z,76.88
2022-11-18T01:56:31.250Z,76.36
2022-11-18T01:59:09.261Z,77.23
2022-11-18T02:01:41.564Z,77.57
2022-11-18T02:04:15.605Z,77.31
2022-11-18T02:06:49.363Z,76.85
2022-11-18T02:09:25.311Z,75.67
2022-11-18T02:11:57.213Z,76.77
2022-11-18T02:14:33.194Z,77.07
2022-11-18T02:17:18.534Z,75.70
2022-11-18T02:20:15.305Z,75.05
2022-11-18T02:23:17.344Z,75.80
2022-11-18T02:26:11.653Z,75.92
2022-11-18T02:29:04.434Z,75.54
2022-11-18T02:31:46.018Z,75.47
2022-11-18T02:34:27.446Z,76.11
2022-11-18T02:37:05.444Z,76.60
2022-11-18T02:39:41.572Z,76.21
2022-11-18T02:42:16.093Z,75.63
2022-11-18T02:44:56.161Z,76.09
2022-11-18T02:47:30.755Z,76.50
2022-11-18T02:50:06.703Z,76.84
2022-11-18T02:52:41.843Z,76.53
2022-11-18T02:55:16.292Z,76.41
2022-11-18T02:57:49.464Z,76.54
2022-11-18T03:00:23.995Z,75.34
2022-11-18T03:02:55.933Z,75.38
2022-11-18T03:05:36.075Z,74.49
2022-11-18T03:08:16.212Z,74.97
2022-11-18T03:10:55.962Z,76.78
2022-11-18T03:13:37.511Z,75.91
2022-11-18T03:16:21.718Z,75.58
2022-11-18T03:19:02.886Z,75.86
2022-11-18T03:21:42.426Z,75.79
2022-11-18T03:24:21.086Z,75.95
2022-11-18T03:26:56.967Z,75.21
2022-11-18T03:29:36.182Z,77.11
2022-11-18T03:32:16.179Z,79.29
2022-11-18T03:34:51.806Z,78.68
2022-11-18T03:37:26.264Z,79.76
2022-11-18T03:40:04.020Z,80.03
2022-11-18T03:42:41.366Z,80.74
2022-11-18T03:45:19.696Z,79.05
2022-11-18T03:47:58.999Z,78.85
2022-11-18T03:50:35.357Z,79.71
2022-11-18T03:53:09.320Z,79.54
2022-11-18T03:55:44.739Z,80.38
2022-11-18T03:58:23.194Z,79.86
2022-11-18T04:01:00.142Z,79.62
2022-11-18T04:03:36.848Z,80.07
2022-11-18T04:06:19.988Z,79.00
2022-11-18T04:08:59.040Z,80.39
2022-11-18T04:11:49.263Z,79.63
2022-11-18T04:14:22.538Z,80.28
2022-11-18T04:16:56.289Z,81.37
2022-11-18T06:30:22.949Z,74.67
2022-11-18T06:33:00.677Z,73.72
2022-11-18T06:35:32.655Z,74.07
2022-11-18T06:38:04.820Z,72.55
2022-11-18T06:40:37.813Z,73.49
2022-11-18T06:43:22.502Z,72.56
2022-11-18T06:46:13.354Z,73.69
2022-11-18T06:48:45.618Z,72.56
2022-11-18T06:51:17.514Z,72.37
2022-11-18T06:53:49.593Z,71.24
2022-11-18T06:56:22.396Z,71.10
2022-11-18T06:58:57.982Z,71.28
2022-11-18T07:01:34.347Z,70.10
2022-11-18T07:04:07.036Z,71.66
2022-11-18T07:06:39.737Z,71.63
2022-11-18T07:09:11.894Z,71.66
2022-11-18T07:11:43.635Z,70.92
2022-11-18T07:14:16.656Z,70.32
2022-11-18T07:16:51.054Z,70.05
2022-11-18T07:19:23.156Z,70.57
2022-11-18T07:21:54.815Z,70.49
2022-11-18T07:24:26.998Z,69.86
2022-11-18T07:26:58.683Z,69.82
2022-11-18T07:29:30.932Z,69.72
2022-11-18T07:32:05.394Z,69.55
2022-11-18T07:34:37.734Z,68.56
2022-11-18T07:37:09.678Z,70.71
2022-11-18T07:39:42.053Z,71.02
2022-11-18T07:42:13.834Z,70.85
2022-11-18T07:44:45.973Z,71.08
2022-11-18T07:47:20.693Z,70.57
2022-11-18T07:49:52.946Z,69.17
2022-11-18T07:52:24.733Z,68.92
2022-11-18T07:54:57.052Z,68.58
2022-11-18T07:57:28.876Z,68.57
2022-11-18T08:00:01.095Z,69.34
2022-11-18T08:02:35.534Z,69.28
2022-11-18T08:05:12.170Z,68.54
2022-11-18T08:07:48.492Z,68.26
2022-11-18T08:10:20.774Z,68.82
2022-11-18T08:12:52.812Z,67.34
2022-11-18T08:15:25.112Z,66.63
2022-11-18T08:17:59.511Z,67.40
2022-11-18T08:20:31.753Z,67.61
2022-11-18T08:23:03.712Z,67.19
2022-11-18T08:25:35.933Z,66.87
2022-11-18T08:28:08.247Z,67.07
2022-11-18T08:30:40.973Z,66.51
2022-11-18T08:33:15.391Z,65.53
2022-11-18T08:35:52.993Z,66.66
2022-11-18T08:38:24.812Z,66.33
2022-11-18T08:40:59.512Z,66.34
2022-11-18T08:43:31.230Z,67.08
2022-11-18T08:46:03.359Z,67.53
2022-11-18T08:48:37.841Z,65.67
2022-11-18T08:51:14.163Z,66.27
2022-11-18T08:53:46.593Z,66.24
2022-11-18T08:56:21.442Z,66.17
2022-11-18T08:58:53.858Z,67.33
2022-11-18T09:01:26.951Z,66.63
2022-11-18T09:04:02.342Z,65.56
2022-11-18T09:06:35.297Z,64.54
2022-11-18T09:09:08.015Z,65.84
2022-11-18T09:12:03.896Z,66.56
2022-11-18T09:15:12.877Z,67.10
2022-11-18T09:17:30.694Z,67.84
2022-11-18T09:20:23.987Z,66.51
2022-11-18T09:22:56.332Z,68.01
2022-11-18T09:25:29.256Z,67.75
2022-11-18T09:28:01.814Z,67.76
2022-11-18T09:30:36.698Z,66.67
2022-11-18T09:33:09.457Z,66.32
2022-11-18T09:35:49.016Z,67.44
2022-11-18T09:38:21.408Z,67.41
2022-11-18T09:41:01.863Z,67.60
2022-11-18T09:43:44.733Z,67.06
2022-11-18T09:46:29.935Z,67.53
2022-11-18T09:49:16.799Z,68.63
2022-11-18T09:51:54.505Z,66.90
2022-11-18T09:54:28.165Z,66.84
2022-11-18T09:57:01.283Z,66.80
2022-11-18T09:59:36.003Z,67.94
2022-11-18T10:02:46.812Z,67.91
2022-11-18T10:05:21.796Z,67.00
2022-11-18T10:08:14.756Z,65.74
2022-11-18T10:13:56.427Z,66.93
2022-11-18T10:16:46.822Z,66.24
2022-11-18T10:19:29.892Z,65.99
2022-11-18T10:22:24.683Z,66.33
2022-11-18T10:25:01.399Z,65.61
2022-11-18T10:27:41.508Z,67.18
2022-11-18T10:30:18.625Z,67.44
2022-11-18T10:33:02.742Z,67.61
2022-11-18T10:35:37.266Z,67.23
2022-11-18T10:38:20.106Z,66.26
2022-11-18T10:41:05.424Z,66.38
2022-11-18T10:43:49.419Z,65.68
2022-11-18T10:46:30.075Z,65.03
2022-11-18T10:49:18.261Z,64.59
2022-11-18T10:51:52.844Z,63.66
2022-11-18T10:54:27.368Z,66.21
2022-11-18T10:57:11.364Z,65.74
2022-11-18T10:59:51.424Z,65.62
2022-11-18T11:02:32.533Z,64.83
2022-11-18T11:05:07.564Z,64.35
2022-11-18T11:07:40.726Z,64.99
2022-11-18T11:10:26.130Z,66.69
2022-11-18T11:13:06.957Z,66.45
2022-11-18T11:15:46.357Z,65.08
2022-11-18T11:18:36.565Z,65.16
2022-11-18T11:21:15.662Z,64.91
2022-11-18T11:23:52.636Z,65.12
2022-11-18T11:29:54.028Z,66.22
2022-11-18T11:32:38.862Z,66.07
2022-11-18T11:35:20.025Z,65.85
2022-11-18T11:37:59.307Z,66.41
2022-11-18T11:40:37.407Z,66.85
2022-11-18T11:43:27.495Z,64.98
2022-11-18T11:46:23.382Z,64.95
2022-11-18T11:49:07.089Z,64.66
2022-11-18T11:51:49.371Z,63.22
2022-11-18T11:54:42.172Z,64.11
2022-11-18T11:57:26.736Z,63.90
2022-11-18T12:00:12.461Z,64.24
2022-11-18T12:03:04.837Z,64.79
2022-11-18T12:05:43.523Z,65.11
2022-11-18T12:11:36.423Z,63.70
2022-11-18T12:14:18.813Z,62.06
2022-11-18T12:16:58.640Z,61.41
2022-11-18T12:19:42.666Z,62.88
2022-11-18T12:22:18.813Z,62.74
2022-11-18T12:24:57.033Z,63.07
2022-11-18T12:28:04.012Z,63.36
2022-11-18T12:30:37.655Z,61.89
2022-11-18T12:33:20.768Z,61.42
2022-11-18T12:35:57.683Z,60.09
2022-11-18T12:38:35.923Z,59.34
2022-11-18T12:41:55.399Z,58.08
2022-11-18T12:44:28.192Z,57.53
2022-11-18T12:47:01.167Z,57.11
2022-11-18T12:50:15.424Z,58.63
2022-11-18T12:52:58.474Z,59.49
2022-11-18T12:55:36.981Z,59.33
2022-11-18T12:58:26.617Z,59.65
2022-11-18T13:01:12.023Z,59.12
2022-11-18T13:03:46.071Z,59.34
2022-11-18T13:06:30.312Z,59.02
2022-11-18T13:09:08.820Z,59.67
2022-11-18T13:11:51.322Z,58.84
2022-11-18T13:14:42.053Z,58.86
2022-11-18T13:17:50.005Z,59.78
2022-11-18T13:20:31.856Z,58.60
2022-11-18T13:23:17.548Z,58.26
2022-11-18T13:25:54.372Z,59.35
2022-11-18T13:28:36.187Z,58.86
2022-11-18T13:31:19.237Z,57.85
2022-11-18T13:33:51.003Z,57.68
2022-11-18T13:36:26.140Z,58.50
2022-11-18T13:39:07.240Z,58.65
2022-11-18T13:41:42.073Z,58.50
2022-11-18T13:44:15.609Z,59.54
2022-11-18T13:46:51.888Z,58.45
2022-11-18T13:49:30.547Z,58.48
2022-11-18T13:52:03.686Z,59.20
2022-11-18T13:55:05.127Z,57.93
2022-11-18T13:57:41.341Z,57.13
2022-11-18T14:00:26.171Z,58.55
2022-11-18T14:03:02.692Z,59.75
2022-11-18T14:05:35.609Z,59.18
2022-11-18T14:08:10.692Z,58.47
2022-11-18T14:10:48.011Z,57.30
2022-11-18T14:13:31.179Z,57.88
2022-11-18T14:16:05.611Z,58.61
2022-11-18T14:18:48.932Z,58.11
2022-11-18T14:21:31.891Z,58.21
2022-11-18T14:24:05.088Z,56.49
2022-11-18T14:26:38.878Z,56.56
2022-11-18T14:29:24.086Z,56.06
2022-11-18T14:32:16.961Z,55.60
2022-11-18T14:34:49.717Z,56.94
2022-11-18T14:37:21.843Z,56.99
2022-11-18T14:39:58.969Z,57.47
2022-11-18T14:42:31.253Z,57.57
2022-11-18T14:45:06.777Z,57.48
2022-11-18T14:47:39.181Z,57.73
2022-11-18T14:50:16.252Z,58.40
2022-11-18T14:52:48.691Z,58.65
2022-11-18T14:55:21.214Z,58.45
2022-11-18T14:57:53.453Z,58.10
2022-11-18T15:00:28.924Z,58.24
2022-11-18T15:03:01.106Z,57.99
2022-11-18T15:05:35.091Z,58.52
2022-11-18T15:08:08.013Z,58.26
2022-11-18T15:10:41.051Z,58.19
2022-11-18T15:13:13.811Z,58.96
2022-11-18T15:15:49.691Z,58.99
2022-11-18T15:18:25.570Z,58.35
2022-11-18T15:20:58.621Z,59.10
2022-11-18T15:23:31.181Z,58.99
2022-11-18T15:26:04.044Z,59.71
2022-11-18T15:28:36.604Z,58.52
2022-11-18T15:31:12.565Z,58.34
2022-11-18T15:33:44.804Z,57.95
2022-11-18T15:36:20.410Z,57.68
2022-11-18T15:38:53.812Z,57.89
2022-11-18T15:41:28.984Z,58.16
2022-11-18T15:44:03.652Z,58.49
2022-11-18T15:46:39.465Z,58.44
2022-11-18T15:49:18.379Z,58.07
2022-11-18T15:51:51.497Z,57.38
2022-11-18T15:54:24.182Z,57.74
2022-11-18T15:56:57.015Z,57.87
2022-11-18T15:59:29.375Z,57.77
2022-11-18T16:02:05.133Z,57.48
2022-11-18T16:04:37.162Z,57.67
2022-11-18T16:07:09.351Z,57.05
2022-11-18T16:09:53.204Z,56.39
2022-11-18T16:12:37.251Z,56.98
2022-11-18T16:15:22.126Z,57.40
2022-11-18T16:17:56.564Z,57.12
2022-11-18T16:20:28.367Z,55.86
2022-11-18T16:23:00.541Z,55.93
2022-11-18T16:25:32.224Z,56.23
2022-11-18T16:28:07.229Z,56.95
2022-11-18T16:31:08.916Z,57.21
2022-11-18T16:33:43.084Z,56.87
2022-11-18T16:36:14.511Z,57.19
2022-11-18T16:38:47.046Z,57.36
2022-11-18T16:41:30.793Z,57.32
2022-11-18T16:44:03.795Z,57.89
2022-11-18T16:46:37.981Z,57.71
2022-11-18T16:49:15.702Z,57.14
2022-11-18T16:51:49.358Z,56.65
2022-11-18T16:54:23.575Z,56.76
2022-11-18T16:56:57.508Z,57.38
2022-11-18T16:59:31.912Z,56.81
2022-11-18T17:02:04.130Z,57.19
2022-11-18T17:04:39.146Z,57.60
2022-11-18T17:07:11.147Z,57.25
2022-11-18T17:09:43.392Z,57.44
2022-11-18T17:12:15.048Z,57.34
2022-11-18T17:14:47.168Z,58.12
2022-11-18T17:17:19.129Z,57.96
2022-11-18T17:19:53.953Z,59.10
2022-11-18T17:22:25.488Z,57.67
2022-11-18T17:25:00.903Z,58.66
2022-11-18T17:27:36.830Z,58.55
2022-11-18T17:30:10.331Z,59.23
2022-11-18T17:32:41.942Z,58.31
2022-11-18T17:35:17.641Z,58.51
2022-11-18T17:37:49.296Z,58.38
2022-11-18T17:40:21.229Z,59.96
2022-11-18T17:42:53.555Z,59.72
2022-11-18T17:45:25.490Z,58.71
2022-11-18T17:47:57.665Z,58.56
2022-11-18T17:50:32.358Z,59.25
2022-11-18T17:53:04.023Z,59.55
2022-11-18T17:55:35.879Z,60.44
2022-11-18T17:58:08.756Z,60.27
2022-11-18T18:00:41.448Z,59.97
2022-11-18T18:03:13.290Z,59.80
2022-11-18T18:05:47.960Z,60.03
2022-11-18T18:08:19.432Z,62.01
2022-11-18T18:10:51.454Z,59.85
2022-11-18T18:13:35.341Z,60.98
2022-11-18T18:16:10.518Z,61.22
2022-11-18T18:18:41.841Z,61.93
2022-11-18T18:21:17.124Z,60.17
2022-11-18T18:23:49.330Z,60.78
2022-11-18T18:26:25.269Z,60.67
2022-11-18T18:28:59.916Z,62.47
2022-11-18T18:31:32.756Z,59.82
2022-11-18T18:34:04.255Z,59.05
2022-11-18T18:36:53.323Z,59.86
2022-11-18T18:39:24.719Z,60.84
2022-11-18T18:41:56.617Z,60.37
2022-11-18T18:44:48.407Z,60.27
2022-11-18T18:47:17.663Z,60.66
2022-11-18T18:49:49.181Z,61.44
2022-11-18T18:52:23.967Z,61.34
2022-11-18T18:54:55.366Z,62.05
2022-11-18T18:57:27.474Z,62.50
2022-11-18T18:59:59.168Z,61.84
2022-11-18T19:02:31.045Z,62.67
2022-11-18T19:05:02.945Z,64.12
2022-11-18T19:07:37.984Z,64.51
2022-11-18T19:10:10.533Z,64.83
2022-11-18T19:12:52.109Z,65.26
2022-11-18T19:15:23.813Z,65.40
2022-11-18T19:17:55.776Z,65.28
2022-11-18T19:20:39.586Z,66.16
2022-11-18T19:23:14.018Z,66.28
2022-11-18T19:25:45.555Z,66.86
2022-11-18T19:28:17.580Z,66.66
2022-11-18T19:30:49.256Z,66.60
2022-11-18T19:33:21.279Z,66.70
2022-11-18T19:35:52.817Z,66.53
2022-11-18T19:38:27.461Z,67.16
2022-11-18T19:41:02.429Z,67.34
2022-11-18T19:43:34.794Z,66.78
2022-11-18T19:46:07.531Z,66.65
2022-11-18T19:48:39.791Z,66.80
2022-11-18T19:51:13.654Z,67.44
2022-11-18T19:53:48.652Z,67.46
2022-11-18T19:56:23.371Z,67.70
2022-11-18T19:58:55.491Z,67.43
2022-11-18T20:01:30.293Z,67.56
2022-11-18T20:04:06.010Z,67.62
2022-11-18T20:06:40.356Z,67.68
2022-11-18T20:09:15.606Z,67.55
2022-11-18T20:11:48.331Z,68.28
2022-11-18T20:14:20.835Z,67.96
2022-11-18T20:16:53.512Z,68.09
2022-11-18T20:19:25.494Z,68.81
2022-11-18T20:21:56.925Z,68.01
2022-11-18T20:24:31.704Z,68.79
2022-11-18T20:27:03.362Z,68.00
2022-11-18T20:29:35.193Z,68.79
2022-11-18T20:32:06.627Z,69.41
2022-11-18T20:34:42.593Z,70.07
2022-11-18T20:37:15.302Z,69.22
2022-11-18T20:39:50.665Z,69.41
2022-11-18T20:42:34.462Z,69.97
2022-11-18T20:45:06.542Z,70.46
2022-11-18T20:47:38.022Z,71.01
2022-11-18T20:50:10.775Z,71.28
2022-11-18T20:52:42.871Z,71.16
2022-11-18T20:55:17.337Z,71.66
2022-11-18T20:57:48.781Z,72.00
2022-11-18T21:00:21.561Z,72.11
2022-11-18T21:02:56.423Z,71.78
2022-11-18T21:05:31.893Z,72.28
2022-11-18T21:08:03.278Z,71.64
2022-11-18T21:10:39.990Z,69.99
2022-11-18T21:13:25.237Z,69.22
2022-11-18T21:15:57.533Z,70.07
2022-11-18T21:18:34.527Z,70.14
2022-11-18T21:21:20.374Z,68.14
2022-11-18T21:23:51.978Z,69.34
2022-11-18T21:26:27.667Z,67.96
2022-11-18T21:29:00.862Z,67.77
2022-11-18T21:31:35.923Z,68.48
2022-11-18T21:34:07.680Z,68.88
2022-11-18T21:36:45.072Z,68.60
2022-11-18T21:39:19.096Z,68.40
2022-11-18T21:41:56.663Z,67.64
2022-11-18T21:44:29.514Z,68.58
2022-11-18T21:47:03.334Z,68.82
2022-11-18T21:49:35.314Z,68.04
2022-11-18T21:52:08.655Z,69.00
2022-11-18T21:54:46.317Z,68.66
2022-11-18T21:57:21.088Z,68.53
2022-11-18T21:59:55.444Z,68.63
2022-11-18T22:02:27.565Z,69.18
2022-11-18T22:05:06.953Z,69.74
2022-11-18T22:07:41.632Z,70.02
2022-11-18T22:10:13.548Z,69.82
2022-11-18T22:12:51.848Z,70.18
2022-11-18T22:15:25.008Z,70.33
2022-11-18T22:17:56.740Z,70.48
2022-11-18T22:20:28.538Z,71.15
2022-11-18T22:23:00.887Z,71.60
2022-11-18T22:25:32.466Z,72.12
2022-11-18T22:28:07.211Z,72.21
2022-11-18T22:30:39.147Z,71.92
2022-11-18T22:33:11.170Z,71.85
2022-11-18T22:35:43.782Z,71.30
2022-11-18T22:38:16.134Z,72.58
2022-11-18T22:40:48.044Z,72.63
2022-11-18T22:43:20.684Z,71.98
2022-11-18T22:45:52.331Z,72.50
2022-11-18T22:48:24.498Z,72.83
2022-11-18T22:51:00.886Z,73.12
2022-11-18T22:53:35.138Z,73.44
2022-11-18T22:56:10.504Z,72.86
2022-11-18T22:58:45.824Z,72.76
2022-11-18T23:01:19.566Z,73.08
2022-11-18T23:03:54.793Z,73.04
2022-11-18T23:06:26.871Z,72.99
2022-11-18T23:08:58.901Z,73.27
2022-11-18T23:11:42.820Z,73.61
2022-11-18T23:14:17.274Z,74.02
2022-11-18T23:16:48.903Z,74.04
2022-11-18T23:19:21.268Z,74.04
2022-11-18T23:21:53.342Z,74.53
2022-11-18T23:24:25.809Z,74.54
2022-11-18T23:26:57.134Z,74.55
2022-11-18T23:29:31.663Z,74.30
2022-11-18T23:32:03.417Z,74.47
2022-11-18T23:34:35.637Z,74.55
2022-11-18T23:37:06.989Z,74.24
2022-11-18T23:39:38.943Z,74.50
2022-11-18T23:42:10.090Z,73.98
2022-11-18T23:44:53.258Z,74.82
2022-11-18T23:47:24.998Z,75.13
2022-11-18T23:49:57.021Z,74.75
2022-11-18T23:52:28.754Z,74.79
2022-11-18T23:55:01.824Z,75.34
2022-11-18T23:57:34.953Z,74.71
